Latest Weather Observations for Norfolk Island

IDN60801

Issued at 6:03 am EST Tuesday 23 July 2024 (issued every 10 minutes, with the page automatically refreshed every 10 minutes)

About weather observations | Map of weather stations | Latest weather observations for NSW | Other Formats
Station Details ID: 200288 Name: NORFOLK ISLAND AERO Lat: -29.04 Lon: 167.94 Height: 111.73 m
Data from the previous 72 hours. | See also: Recent months at Norfolk Island

Observations are collected in the New South Wales time zone (Eastern Standard Time) which includes daylight savings in the summer period. Therefore 'Rain since 9am' totals and other values are based on the New South Wales time zone, which may differ from local time.

Date/Time
EST
Temp
°C
App
Temp
°C
Dew
Point
°C
Rel
Hum
%
Delta-T
°C
Wind Press
QNH
hPa
Press
MSL
hPa
Rain since
9am
mm
Dir  Spd
km/h
Gust
km/h
Spd
kts
Gust
kts
23/06:00am 15.9 11.8 7.9 59 4.0 S 19 28 10 15 1022.5 1022.4 0.2
23/05:30am 15.9 12.1 8.9 63 3.6 S 19 28 10 15 1022.2 1022.1 0.2
23/05:00am 16.0 12.1 9.4 65 3.4 S 20 32 11 17 1021.7 1021.6 0.2
23/04:30am 16.1 12.3 9.8 66 3.3 S 20 32 11 17 1021.3 1021.2 0.2
23/04:00am 16.1 12.7 10.6 70 2.9 SSW 19 30 10 16 1020.8 1020.7 0.2
23/03:30am 16.1 12.5 11.7 75 2.4 SSW 22 32 12 17 1020.8 1020.7 0.2
23/03:00am 16.3 12.0 10.8 70 2.9 SSW 24 35 13 19 1020.7 1020.6 0.2
23/02:30am 16.3 12.4 10.8 70 2.9 SSW 22 30 12 16 1020.7 1020.6 0.2
23/02:00am 16.3 12.3 10.6 69 3.0 SSW 22 33 12 18 1020.8 1020.7 0.2
23/01:30am 16.1 13.0 11.7 75 2.4 SSW 19 28 10 15 1020.7 1020.6 0.2
23/01:00am 16.0 13.0 12.0 77 2.2 SSW 19 28 10 15 1020.6 1020.5 0.2
23/12:30am 16.5 12.4 11.6 73 2.7 SSW 24 32 13 17 1020.5 1020.4 0.2
23/12:00am 16.5 14.1 12.5 77 2.2 SSW 17 28 9 15 1020.5 1020.4 0.2
 
Date/Time
EST
Temp
°C
App
Temp
°C
Dew
Point
°C
Rel
Hum
%
Delta-T
°C
Wind Press
QNH
hPa
Press
MSL
hPa
Rain since
9am
mm
Dir  Spd
km/h
Gust
km/h
Spd
kts
Gust
kts
22/11:30pm 16.2 13.5 11.8 75 2.4 SSW 17 30 9 16 1020.4 1020.3 0.2
22/11:00pm 16.3 12.7 11.9 75 2.4 SSW 22 35 12 19 1020.4 1020.3 0.2
22/10:30pm 16.5 13.9 12.1 75 2.4 SSW 17 26 9 14 1020.2 1020.1 0.2
22/10:00pm 16.6 13.5 11.7 73 2.7 SSW 19 30 10 16 1020.1 1020.0 0.2
22/09:30pm 16.5 13.7 12.7 78 2.1 SW 19 30 10 16 1019.9 1019.8 0.2
22/09:00pm 16.7 13.0 12.8 78 2.2 SW 24 33 13 18 1019.7 1019.6 0.2
22/08:30pm 16.8 13.3 12.1 74 2.6 SW 22 33 12 18 1019.4 1019.3 0.2
22/08:00pm 16.9 12.8 11.6 71 2.9 SW 24 39 13 21 1019.1 1019.0 0.2
22/07:30pm 16.8 12.5 11.9 73 2.7 SW 26 39 14 21 1019.0 1018.9 0.2
22/07:00pm 17.0 12.6 12.9 77 2.3 WSW 28 39 15 21 1019.0 1018.9 0.2
22/06:30pm 17.3 14.2 13.4 78 2.2 SW 22 30 12 16 1018.8 1018.6 0.2
22/06:00pm 17.2 12.5 12.1 72 2.8 WSW 28 39 15 21 1018.5 1018.3 0.2
22/05:30pm 17.4 12.9 12.7 74 2.6 WSW 28 41 15 22 1018.4 1018.2 0.2
22/05:00pm 17.6 13.6 13.1 75 2.5 WSW 26 37 14 20 1018.0 1017.8 0.2
22/04:30pm 17.5 12.7 12.8 74 2.6 WSW 30 41 16 22 1017.6 1017.4 0.2
22/04:00pm 17.8 13.5 13.1 74 2.6 WSW 28 39 15 21 1017.1 1016.9 0.2
22/03:30pm 18.0 13.5 12.7 71 3.0 WSW 28 43 15 23 1016.7 1016.5 0.2
22/03:00pm 18.8 14.1 13.2 70 3.2 WSW 30 41 16 22 1016.4 1016.2 0.2
22/02:30pm 18.9 14.3 13.5 71 3.1 WSW 30 44 16 24 1016.2 1016.0 0.2
22/02:00pm 18.7 13.6 13.1 70 3.2 WSW 32 48 17 26 1016.0 1015.8 0.2
22/01:30pm 19.0 15.1 14.3 74 2.7 WSW 28 46 15 25 1015.7 1015.5 0.2
22/01:06pm 19.0 14.6 14.1 73 2.8 WSW 30 48 16 26 1015.6 1015.4 0.2
22/01:00pm 19.2 15.0 14.7 75 2.6 WSW 30 39 16 21 1015.6 1015.4 0.2
22/12:30pm 17.5 12.3 13.4 77 2.3 W 33 54 18 29 1015.5 1015.3 0.2
22/12:18pm 18.8 14.2 14.5 76 2.5 W 32 50 17 27 1015.6 1015.4 0.2
22/12:00pm 19.6 15.3 14.4 72 3.0 W 30 41 16 22 1015.7 1015.5 0.2
22/11:30am 18.7 13.4 14.2 75 2.6 W 35 48 19 26 1015.8 1015.6 0.2
22/11:14am 19.9 15.9 15.1 74 2.8 W 30 48 16 26 1016.0 1015.8 0.2
22/11:00am 19.7 14.6 14.7 73 2.9 W 35 50 19 27 1016.0 1015.8 0.2
22/10:50am 19.6 14.4 14.4 72 3.0 W 35 54 19 29 1016.2 1016.0 0.2
22/10:30am 19.5 14.3 14.5 73 2.9 W 35 48 19 26 1016.4 1016.2 0.2
22/10:00am 19.4 14.5 14.4 73 2.9 W 33 48 18 26 1016.6 1016.4 0.2
22/09:30am 19.0 14.4 14.5 75 2.6 W 32 48 17 26 1016.6 1016.4 0.2
22/09:13am 18.4 13.7 14.3 77 2.4 W 32 50 17 27 1016.5 1016.3 0.0
22/09:00am 18.9 14.2 14.2 74 2.7 W 32 44 17 24 1016.4 1016.2 0.0
22/08:31am 18.9 13.9 13.3 70 3.2 W 32 50 17 27 1016.2 1016.0 0.0
22/08:30am 18.8 13.7 13.2 70 3.2 W 32 48 17 26 1016.2 1016.0 0.0
22/08:00am 17.7 13.0 14.2 80 2.0 W 32 50 17 27 1016.0 1015.8 0.8
22/07:33am 18.2 13.3 13.7 75 2.6 W 32 50 17 27 1015.7 1015.5 0.8
22/07:30am 18.2 13.1 13.7 75 2.6 W 33 50 18 27 1015.6 1015.4 0.8
22/07:27am 18.0 12.9 13.1 73 2.8 W 32 50 17 27 1015.6 1015.4 0.8
22/07:00am 18.1 13.4 13.2 73 2.8 W 30 43 16 23 1015.3 1015.1 0.8
22/06:40am 17.9 13.3 13.6 76 2.5 W 30 48 16 26 1015.1 1014.9 0.8
22/06:30am 17.4 12.7 13.3 77 2.3 W 30 46 16 25 1015.1 1014.9 0.8
22/06:15am 17.0 11.5 12.5 75 2.5 W 33 52 18 28 1014.9 1014.7 0.8
22/06:00am 17.0 11.3 13.1 78 2.2 W 35 52 19 28 1014.7 1014.5 0.8
22/05:31am 16.5 12.0 12.7 78 2.1 W 28 48 15 26 1014.4 1014.2 0.8
22/05:30am 16.4 12.0 12.8 79 2.0 W 28 41 15 22 1014.4 1014.2 0.8
22/05:00am 15.5 7.1 12.3 81 1.8 W 48 69 26 37 1014.4 1014.2 0.8
22/04:55am 15.9 8.8 13.4 85 1.4 W 43 69 23 37 1014.2 1014.0 0.8
22/04:52am 16.5 10.1 13.2 81 1.9 W 39 69 21 37 1014.1 1013.9 0.8
22/04:50am 17.3 11.7 13.2 77 2.3 W 35 54 19 29 1014.0 1013.8 0.8
22/04:30am 17.3 11.5 12.6 74 2.6 W 35 48 19 26 1013.8 1013.6 0.8
22/04:00am 16.7 10.2 11.8 73 2.7 W 37 50 20 27 1013.3 1013.2 0.8
22/03:30am 17.2 9.8 11.2 68 3.3 W 41 59 22 32 1013.0 1012.9 0.8
22/03:00am 17.2 11.1 11.7 70 3.0 W 35 54 19 29 1013.0 1012.9 0.8
22/02:30am 17.6 10.8 11.9 69 3.1 W 39 57 21 31 1012.9 1012.8 0.8
22/02:00am 17.6 9.6 10.5 63 3.8 W 43 65 23 35 1012.8 1012.7 0.8
22/01:41am 17.5 11.0 11.8 69 3.1 W 37 56 20 30 1012.7 1012.6 0.8
22/01:30am 17.5 10.5 11.3 67 3.4 W 39 56 21 30 1012.7 1012.6 0.8
22/01:00am 17.4 11.3 11.9 70 3.0 W 35 54 19 29 1012.7 1012.6 0.8
22/12:30am 17.2 11.1 11.7 70 3.0 W 35 54 19 29 1012.8 1012.7 0.8
22/12:29am 17.2 11.0 11.5 69 3.1 W 35 54 19 29 1012.8 1012.7 0.8
22/12:00am 17.2 11.3 11.2 68 3.3 W 33 48 18 26 1012.7 1012.6 0.8
 
Date/Time
EST
Temp
°C
App
Temp
°C
Dew
Point
°C
Rel
Hum
%
Delta-T
°C
Wind Press
QNH
hPa
Press
MSL
hPa
Rain since
9am
mm
Dir  Spd
km/h
Gust
km/h
Spd
kts
Gust
kts
21/11:33pm 17.1 11.3 10.9 67 3.3 W 32 50 17 27 1012.8 1012.7 0.8
21/11:30pm 17.0 10.7 11.1 68 3.2 W 35 50 19 27 1012.8 1012.7 0.8
21/11:05pm 17.5 11.8 11.1 66 3.5 W 32 50 17 27 1012.6 1012.5 0.8
21/11:00pm 17.5 11.9 11.5 68 3.3 W 32 46 17 25 1012.6 1012.5 0.8
21/10:30pm 17.3 11.3 10.9 66 3.5 W 33 52 18 28 1012.7 1012.6 0.8
21/10:19pm 17.1 12.4 12.0 72 2.8 W 28 46 15 25 1012.8 1012.7 0.8
21/10:00pm 16.7 13.0 12.7 77 2.2 WSW 24 37 13 20 1012.9 1012.8 0.8
21/09:34pm 17.5 12.6 11.3 67 3.4 W 28 48 15 26 1012.7 1012.6 0.8
21/09:30pm 17.2 12.7 12.5 74 2.6 W 28 35 15 19 1012.7 1012.6 0.8
21/09:12pm 17.1 12.4 12.0 72 2.8 W 28 46 15 25 1012.7 1012.6 0.8
21/09:00pm 17.4 11.7 11.7 69 3.1 W 33 44 18 24 1012.6 1012.5 0.8
21/08:30pm 17.6 9.7 9.2 58 4.4 W 41 61 22 33 1012.4 1012.3 0.8
21/08:00pm 17.6 10.8 10.7 64 3.7 W 37 59 20 32 1012.2 1012.1 0.8
21/07:30pm 17.6 11.2 12.1 70 3.0 W 37 56 20 30 1012.0 1011.9 0.8
21/07:25pm 17.6 12.1 12.3 71 2.9 W 33 56 18 30 1011.9 1011.8 0.8
21/07:00pm 17.5 11.7 12.6 73 2.7 W 35 48 19 26 1011.7 1011.6 0.8
21/06:43pm 17.4 12.6 12.9 75 2.5 W 30 50 16 27 1011.6 1011.5 0.8
21/06:30pm 17.1 13.1 14.2 83 1.7 W 28 41 15 22 1011.5 1011.3 0.8
21/06:00pm 16.8 13.2 14.1 84 1.5 W 26 37 14 20 1011.3 1011.1 0.8
21/05:30pm 17.0 12.7 14.5 85 1.4 W 30 41 16 22 1011.2 1011.0 0.8
21/05:00pm 16.6 12.3 14.4 87 1.3 W 30 43 16 23 1010.9 1010.7 0.8
21/04:43pm 16.9 12.8 14.9 88 1.2 W 30 50 16 27 1010.9 1010.7 0.8
21/04:30pm 16.5 11.8 14.3 87 1.3 W 32 43 17 23 1010.7 1010.5 0.8
21/04:10pm 17.1 13.4 14.9 87 1.3 W 28 52 15 28 1010.5 1010.3 0.8
21/04:00pm 17.2 12.9 14.5 84 1.6 W 30 41 16 22 1010.1 1009.9 0.8
21/03:36pm 16.7 12.4 14.3 86 1.4 W 30 41 16 22 1010.0 1009.8 0.8
21/03:33pm 16.6 12.2 14.2 86 1.4 W 30 41 16 22 1009.9 1009.7 0.8
21/03:30pm 16.4 12.0 14.2 87 1.3 W 30 46 16 25 1009.9 1009.7 0.8
21/03:07pm 16.4 10.7 15.3 93 0.6 W 39 61 21 33 1010.1 1009.9 0.6
21/03:00pm 16.5 9.4 14.9 90 0.9 W 46 78 25 42 1010.0 1009.8 0.6
21/02:59pm 16.7 9.9 14.9 89 1.0 W 44 78 24 42 1010.1 1009.9 0.6
21/02:54pm 18.1 12.5 14.4 79 2.1 WNW 37 78 20 42 1009.6 1009.4 0.0
21/02:30pm 19.7 14.9 15.6 77 2.4 WNW 35 56 19 30 1009.5 1009.3 0.0
21/02:00pm 20.2 15.3 15.4 74 2.9 WNW 35 54 19 29 1009.5 1009.3 0.0
21/01:30pm 20.2 15.6 15.2 73 3.0 WNW 33 54 18 29 1009.4 1009.2 0.0
21/01:06pm 20.7 17.0 16.1 75 2.8 WNW 30 48 16 26 1009.5 1009.3 0.0
21/01:00pm 20.5 16.4 15.9 75 2.8 WNW 32 48 17 26 1009.6 1009.4 0.0
21/12:30pm 20.4 16.0 15.2 72 3.1 WNW 32 50 17 27 1009.7 1009.5 0.0
21/12:00pm 19.8 15.2 15.0 74 2.8 WNW 33 54 18 29 1010.0 1009.8 0.0
21/11:30am 20.3 14.9 15.1 72 3.1 WNW 37 57 20 31 1010.3 1010.1 0.0
21/11:00am 20.4 15.1 15.2 72 3.1 WNW 37 57 20 31 1010.9 1010.7 0.0
21/10:39am 20.3 15.4 15.3 73 3.0 WNW 35 54 19 29 1011.2 1011.0 0.0
21/10:30am 20.0 15.0 16.0 78 2.4 WNW 37 52 20 28 1011.3 1011.1 0.0
21/10:00am 20.3 17.0 16.1 77 2.5 WNW 28 41 15 22 1011.7 1011.6 0.0
21/09:31am 19.7 15.4 16.0 79 2.2 WNW 33 52 18 28 1012.0 1011.9 0.0
21/09:30am 19.7 15.1 16.2 80 2.1 WNW 35 52 19 28 1012.0 1011.9 0.0
21/09:27am 19.5 15.3 16.3 82 1.9 WNW 33 52 18 28 1012.0 1011.9 0.0
21/09:20am 19.3 16.2 16.5 84 1.7 WNW 28 50 15 27 1012.0 1011.9 0.0
21/09:10am 18.1 14.8 16.1 88 1.2 WNW 28 41 15 22 1012.1 1012.0 0.0
21/09:04am 18.4 15.4 15.8 85 1.5 NW 26 46 14 25 1012.2 1012.1 0.0
21/09:00am 18.3 14.9 15.7 85 1.5 NW 28 46 15 25 1012.3 1012.2 0.0
21/08:40am 18.1 14.6 15.5 85 1.5 NW 28 44 15 24 1012.3 1012.2 0.0
21/08:35am 18.0 14.5 15.6 86 1.4 NW 28 48 15 26 1012.4 1012.3 0.0
21/08:30am 18.0 15.4 15.8 87 1.3 NW 24 48 13 26 1012.3 1012.2 0.0
21/08:00am 16.7 13.9 14.2 85 1.4 NW 22 37 12 20 1012.4 1012.3 0.4
21/07:48am 16.2 13.3 14.0 87 1.3 NW 22 37 12 20 1012.3 1012.2 0.4
21/07:30am 16.0 9.2 14.4 90 0.9 WNW 43 63 23 34 1012.5 1012.4 0.4
21/07:28am 16.5 10.0 15.0 91 0.9 WNW 43 63 23 34 1012.4 1012.3 0.2
21/07:26am 16.6 10.1 15.0 90 0.9 WNW 43 57 23 31 1012.4 1012.3 0.2
21/07:20am 17.3 10.6 15.1 87 1.3 WNW 44 63 24 34 1012.3 1012.2 0.0
21/07:13am 17.4 11.7 14.3 82 1.8 WNW 37 61 20 33 1012.0 1011.9 0.0
21/07:01am 19.3 14.6 14.3 73 2.9 NW 32 50 17 27 1011.8 1011.7 0.0
21/07:00am 19.3 14.3 14.1 72 3.0 NW 33 50 18 27 1011.8 1011.7 0.0
21/06:33am 18.8 14.9 14.3 75 2.6 NW 28 48 15 26 1011.7 1011.6 0.0
21/06:30am 18.9 15.2 14.0 73 2.8 NW 26 48 14 26 1011.7 1011.6 0.0
21/06:00am 19.0 16.3 14.5 75 2.6 NW 22 41 12 22 1011.8 1011.7 0.0
21/05:30am 18.6 16.3 14.7 78 2.3 NW 20 41 11 22 1011.9 1011.8 0.0
21/05:00am 18.5 16.5 15.4 82 1.8 NNW 20 41 11 22 1012.0 1011.9 0.0
21/04:30am 18.3 16.3 15.0 81 1.9 NW 19 37 10 20 1011.9 1011.8 0.0
21/04:00am 18.4 15.5 14.1 76 2.5 NW 22 35 12 19 1011.9 1011.8 0.0
21/03:30am 18.4 15.0 13.7 74 2.7 NW 24 39 13 21 1011.7 1011.6 0.0
21/03:00am 18.3 14.4 13.2 72 2.9 NW 26 41 14 22 1011.7 1011.6 0.0
21/02:30am 18.4 15.8 13.7 74 2.7 NW 20 41 11 22 1012.0 1011.9 0.0
21/02:00am 18.3 16.2 13.6 74 2.7 NW 17 28 9 15 1012.3 1012.2 0.0
21/01:30am 18.4 16.0 12.6 69 3.3 NW 17 30 9 16 1012.4 1012.3 0.0
21/01:00am 17.9 15.9 14.0 78 2.2 NW 17 35 9 19 1013.0 1012.9 0.0
21/12:30am 17.9 15.5 14.4 80 2.0 NW 20 39 11 21 1013.5 1013.4 0.0
21/12:00am 17.4 15.9 14.3 82 1.8 NNW 15 28 8 15 1013.8 1013.6 0.0
 
Date/Time
EST
Temp
°C
App
Temp
°C
Dew
Point
°C
Rel
Hum
%
Delta-T
°C
Wind Press
QNH
hPa
Press
MSL
hPa
Rain since
9am
mm
Dir  Spd
km/h
Gust
km/h
Spd
kts
Gust
kts
20/11:30pm 17.0 15.0 13.9 82 1.8 NW 17 30 9 16 1014.1 1013.9 0.0
20/11:00pm 16.6 13.3 13.9 84 1.5 NW 24 41 13 22 1014.5 1014.3 0.0
20/10:30pm 17.6 15.2 12.7 73 2.7 NW 17 30 9 16 1014.6 1014.4 0.0
20/10:00pm 17.6 15.2 12.5 72 2.8 NW 17 28 9 15 1014.8 1014.6 0.0
20/09:30pm 17.5 15.8 12.4 72 2.8 NNW 13 22 7 12 1014.9 1014.7 0.0
20/09:00pm 17.4 15.5 11.9 70 3.0 NW 13 20 7 11 1015.2 1015.0 0.0
20/08:30pm 17.1 14.8 11.8 71 2.9 NW 15 24 8 13 1015.5 1015.3 0.0
20/08:00pm 16.8 15.6 11.5 71 2.9 NW 9 17 5 9 1015.5 1015.3 0.0
20/07:30pm 16.6 14.4 10.7 68 3.2 NW 13 19 7 10 1015.7 1015.5 0.0
20/07:00pm 16.7 14.4 10.5 67 3.3 NW 13 19 7 10 1015.7 1015.5 0.0
20/06:30pm 16.7 14.0 10.5 67 3.3 WNW 15 22 8 12 1015.8 1015.6 0.0
20/06:00pm 17.0 13.4 10.6 66 3.4 WNW 20 32 11 17 1015.8 1015.6 0.0
20/05:30pm 16.8 13.2 10.4 66 3.4 WNW 20 28 11 15 1015.4 1015.2 0.0
20/05:00pm 16.7 13.2 10.1 65 3.5 WNW 19 26 10 14 1015.1 1014.9 0.0
20/04:30pm 16.8 13.7 10.4 66 3.4 WNW 17 26 9 14 1014.9 1014.7 0.0
20/04:00pm 16.9 13.0 9.3 61 4.0 WNW 20 28 11 15 1014.7 1014.5 0.0
20/03:30pm 17.9 14.2 10.0 60 4.2 W 20 28 11 15 1014.3 1014.1 0.0
20/03:00pm 18.4 14.5 10.8 61 4.1 W 22 30 12 16 1014.3 1014.1 0.0
20/02:30pm 18.6 15.2 11.2 62 4.1 W 20 30 11 16 1014.2 1014.0 0.0
20/02:00pm 19.0 15.8 11.3 61 4.2 W 19 28 10 15 1014.0 1013.8 0.0
20/01:30pm 18.9 15.3 10.7 59 4.5 W 20 28 11 15 1014.1 1013.9 0.0
20/01:00pm 19.3 15.3 10.3 56 4.9 W 22 30 12 16 1014.0 1013.8 0.0
20/12:30pm 19.1 15.6 10.9 59 4.5 W 20 30 11 16 1014.2 1014.0 0.0
20/12:00pm 18.9 15.4 11.0 60 4.3 W 20 30 11 16 1014.4 1014.2 0.0
20/11:30am 19.3 16.1 11.8 62 4.2 W 20 30 11 16 1014.5 1014.3 0.0
20/11:00am 19.5 16.8 12.8 65 3.8 WSW 19 26 10 14 1014.9 1014.7 0.0
20/10:30am 19.0 15.4 12.0 64 3.9 WSW 22 32 12 17 1015.6 1015.4 0.0
20/10:00am 18.6 15.2 11.4 63 4.0 WSW 20 32 11 17 1016.0 1015.8 0.0
20/09:30am 18.4 15.1 11.5 64 3.8 WSW 20 30 11 16 1015.9 1015.7 0.0
20/09:00am 18.4 15.0 11.2 63 3.9 WSW 20 30 11 16 1016.0 1015.8 0.0
20/08:30am 17.8 14.1 11.6 67 3.4 WSW 22 32 12 17 1015.9 1015.7 0.0
20/08:00am 17.7 14.5 11.9 69 3.2 WSW 20 32 11 17 1015.5 1015.3 -
20/07:30am 17.2 12.9 10.6 65 3.5 SW 24 33 13 18 1015.4 1015.2 -
20/07:00am 16.9 13.7 11.8 72 2.8 WSW 20 30 11 16 1015.0 1014.8 -
20/06:30am 16.5 12.2 10.8 69 3.1 WSW 24 33 13 18 1014.9 1014.7 -

Other formats

Comma delimited format used in spreadsheet applications
http://www.bom.gov.au/fwo/IDN60801/IDN60801.94996.axf

JavaScript Object Notation format (JSON) in row-major order
http://www.bom.gov.au/fwo/IDN60801/IDN60801.94996.json

Data quality

Most of these data are generated automatically and are frequently updated. Quality checks on data are not normally performed. It is possible for incorrect values to appear. Refer to information at About Latest Weather Observations and please check the disclaimer before using these data.